createdAt,value
2018-12-31T00:00:01.341Z,961.74
2018-12-31T00:01:01.331Z,961.69
2018-12-31T00:02:01.321Z,961.69
2018-12-31T00:03:01.311Z,961.69
2018-12-31T00:04:01.303Z,961.68
2018-12-31T00:05:01.291Z,961.67
2018-12-31T00:06:03.801Z,961.70
2018-12-31T00:07:01.274Z,961.70
2018-12-31T00:08:01.260Z,961.69
2018-12-31T00:09:01.256Z,961.70
2018-12-31T00:10:01.250Z,961.66
2018-12-31T00:11:01.233Z,961.66
2018-12-31T00:12:01.224Z,961.67
2018-12-31T00:13:01.218Z,961.72
2018-12-31T00:14:01.208Z,961.64
2018-12-31T00:15:01.197Z,961.70
2018-12-31T00:16:01.186Z,961.69
2018-12-31T00:17:01.176Z,961.75
2018-12-31T00:18:01.167Z,961.73
2018-12-31T00:19:01.159Z,961.69
2018-12-31T00:20:01.147Z,961.72
2018-12-31T00:21:01.139Z,961.68
2018-12-31T00:22:01.129Z,961.71
2018-12-31T00:23:01.115Z,961.73
2018-12-31T00:24:01.103Z,961.73
2018-12-31T00:25:01.092Z,961.65
2018-12-31T00:26:01.086Z,961.70
2018-12-31T00:27:01.066Z,961.64
2018-12-31T00:28:01.068Z,961.64
2018-12-31T00:29:01.057Z,961.60
2018-12-31T00:30:01.043Z,961.60
2018-12-31T00:31:01.035Z,961.65
2018-12-31T00:32:01.025Z,961.63
2018-12-31T00:33:01.015Z,961.60
2018-12-31T00:34:01.005Z,961.68
2018-12-31T00:35:00.986Z,961.65
2018-12-31T00:36:00.981Z,961.66
2018-12-31T00:37:00.976Z,961.66
2018-12-31T00:38:00.966Z,961.68
2018-12-31T00:39:00.955Z,961.67
2018-12-31T00:40:02.506Z,961.74
2018-12-31T00:41:00.932Z,961.74
2018-12-31T00:42:00.920Z,961.75
2018-12-31T00:43:00.909Z,961.75
2018-12-31T00:44:00.904Z,961.74
2018-12-31T00:45:00.894Z,961.80
2018-12-31T00:46:00.886Z,961.81
2018-12-31T00:47:00.874Z,961.80
2018-12-31T00:48:00.864Z,961.83
2018-12-31T00:49:00.855Z,961.82
2018-12-31T00:50:00.852Z,961.83
2018-12-31T00:51:00.833Z,961.84
2018-12-31T00:52:00.825Z,961.85
2018-12-31T00:53:00.814Z,961.87
2018-12-31T00:54:00.806Z,961.86
2018-12-31T00:55:00.795Z,961.90
2018-12-31T00:56:00.789Z,961.91
2018-12-31T00:57:00.774Z,961.93
2018-12-31T00:58:00.763Z,961.89
2018-12-31T00:59:00.754Z,961.92
2018-12-31T01:00:00.743Z,961.89
2018-12-31T01:01:00.735Z,961.90
2018-12-31T01:02:00.727Z,961.89
2018-12-31T01:03:00.717Z,961.88
2018-12-31T01:04:00.703Z,961.89
2018-12-31T01:05:00.700Z,961.87
2018-12-31T01:06:00.679Z,961.93
2018-12-31T01:07:00.674Z,961.94
2018-12-31T01:08:00.663Z,961.97
2018-12-31T01:09:00.650Z,962.00
2018-12-31T01:10:00.650Z,961.98
2018-12-31T01:11:00.636Z,961.95
2018-12-31T01:12:00.624Z,961.96
2018-12-31T01:13:00.616Z,961.96
2018-12-31T01:14:00.607Z,962.01
2018-12-31T01:15:00.624Z,962.00
2018-12-31T01:16:00.593Z,962.05
2018-12-31T01:17:00.575Z,962.03
2018-12-31T01:18:00.563Z,962.06
2018-12-31T01:19:00.554Z,962.08
2018-12-31T01:20:00.551Z,962.02
2018-12-31T01:21:00.534Z,962.05
2018-12-31T01:22:00.527Z,962.06
2018-12-31T01:23:00.513Z,962.05
2018-12-31T01:24:00.506Z,962.02
2018-12-31T01:25:00.490Z,962.10
2018-12-31T01:26:00.486Z,962.08
2018-12-31T01:27:00.473Z,962.08
2018-12-31T01:28:00.463Z,962.10
2018-12-31T01:29:00.452Z,962.10
2018-12-31T01:30:00.486Z,962.08
2018-12-31T01:31:00.429Z,962.09
2018-12-31T01:32:00.434Z,962.08
2018-12-31T01:33:00.412Z,962.06
2018-12-31T01:34:00.404Z,962.07
2018-12-31T01:35:00.394Z,961.98
2018-12-31T01:36:00.382Z,961.99
2018-12-31T01:37:00.369Z,962.02
2018-12-31T01:38:00.365Z,962.01
2018-12-31T01:39:00.353Z,962.03
2018-12-31T01:40:00.347Z,961.99
2018-12-31T01:41:00.333Z,962.00
2018-12-31T01:42:00.324Z,962.01
2018-12-31T01:43:00.312Z,962.01
2018-12-31T01:44:00.303Z,962.01
2018-12-31T01:45:00.292Z,962.00
2018-12-31T01:46:00.285Z,962.03
2018-12-31T01:47:00.271Z,962.00
2018-12-31T01:48:00.262Z,961.98
2018-12-31T01:49:00.255Z,961.98
2018-12-31T01:50:00.242Z,961.96
2018-12-31T01:51:00.231Z,961.92
2018-12-31T01:52:00.222Z,961.91
2018-12-31T01:53:00.211Z,961.95
2018-12-31T01:54:00.202Z,961.94
2018-12-31T01:55:00.192Z,961.95
2018-12-31T01:56:00.185Z,961.89
2018-12-31T01:57:00.173Z,961.86
2018-12-31T01:58:00.162Z,961.83
2018-12-31T01:59:00.151Z,961.83
2018-12-31T02:00:00.171Z,961.83
2018-12-31T02:01:00.133Z,961.87
2018-12-31T02:02:00.122Z,961.80
2018-12-31T02:03:00.113Z,961.81
2018-12-31T02:04:00.100Z,961.81
2018-12-31T02:05:00.146Z,961.79
2018-12-31T02:06:00.084Z,961.76
2018-12-31T02:07:00.063Z,961.80
2018-12-31T02:08:00.060Z,961.80
2018-12-31T02:09:00.059Z,961.78
2018-12-31T02:10:00.041Z,961.77
2018-12-31T02:11:00.029Z,961.75
2018-12-31T02:12:00.025Z,961.71
2018-12-31T02:13:00.011Z,961.73
2018-12-31T02:14:00.005Z,961.73
2018-12-31T02:14:59.989Z,961.74
2018-12-31T02:15:59.978Z,961.72
2018-12-31T02:16:59.975Z,961.72
2018-12-31T02:17:59.959Z,961.70
2018-12-31T02:18:59.949Z,961.70
2018-12-31T02:19:59.937Z,961.70
2018-12-31T02:20:59.926Z,961.71
2018-12-31T02:21:59.920Z,961.73
2018-12-31T02:22:59.911Z,961.72
2018-12-31T02:23:59.896Z,961.72
2018-12-31T02:24:59.886Z,961.72
2018-12-31T02:25:59.878Z,961.73
2018-12-31T02:26:59.865Z,961.67
2018-12-31T02:27:59.855Z,961.69
2018-12-31T02:28:59.846Z,961.63
2018-12-31T02:29:59.837Z,961.67
2018-12-31T02:30:59.825Z,961.68
2018-12-31T02:31:59.814Z,961.77
2018-12-31T02:32:59.805Z,961.76
2018-12-31T02:33:59.797Z,961.72
2018-12-31T02:34:59.786Z,961.74
2018-12-31T02:35:59.840Z,961.68
2018-12-31T02:36:59.827Z,961.69
2018-12-31T02:37:59.754Z,961.67
2018-12-31T02:38:59.746Z,961.67
2018-12-31T02:39:59.733Z,961.68
2018-12-31T02:40:59.729Z,961.64
2018-12-31T02:41:59.760Z,961.64
2018-12-31T02:42:59.707Z,961.63
2018-12-31T02:43:59.695Z,961.66
2018-12-31T02:44:59.683Z,961.69
2018-12-31T02:45:59.676Z,961.71
2018-12-31T02:46:59.664Z,961.72
2018-12-31T02:47:59.649Z,961.69
2018-12-31T02:48:59.646Z,961.75
2018-12-31T02:49:59.641Z,961.75
2018-12-31T02:50:59.630Z,961.79
2018-12-31T02:51:59.606Z,961.77
2018-12-31T02:52:59.605Z,961.75
2018-12-31T02:53:59.595Z,961.75
2018-12-31T02:54:59.584Z,961.71
2018-12-31T02:55:59.572Z,961.73
2018-12-31T02:56:59.567Z,961.71
2018-12-31T02:57:59.555Z,961.73
2018-12-31T02:58:59.547Z,961.66
2018-12-31T02:59:59.535Z,961.69
2018-12-31T03:00:59.514Z,961.66
2018-12-31T03:01:59.516Z,961.69
2018-12-31T03:02:59.504Z,961.70
2018-12-31T03:03:59.517Z,961.70
2018-12-31T03:04:59.486Z,961.68
2018-12-31T03:05:59.479Z,961.69
2018-12-31T03:06:59.470Z,961.68
2018-12-31T03:07:59.455Z,961.65
2018-12-31T03:08:59.436Z,961.68
2018-12-31T03:09:59.434Z,961.68
2018-12-31T03:10:59.424Z,961.60
2018-12-31T03:11:59.415Z,961.59
2018-12-31T03:12:59.408Z,961.58
2018-12-31T03:13:59.388Z,961.52
2018-12-31T03:14:59.390Z,961.52
2018-12-31T03:15:59.380Z,961.51
2018-12-31T03:16:59.363Z,961.51
2018-12-31T03:17:59.344Z,961.51
2018-12-31T03:18:59.351Z,961.52
2018-12-31T03:19:59.334Z,961.49
2018-12-31T03:20:59.322Z,961.46
2018-12-31T03:21:59.311Z,961.45
2018-12-31T03:22:59.300Z,961.41
2018-12-31T03:23:59.292Z,961.35
2018-12-31T03:24:59.282Z,961.36
2018-12-31T03:25:59.274Z,961.33
2018-12-31T03:26:59.302Z,961.33
2018-12-31T03:27:59.300Z,961.33
2018-12-31T03:28:59.243Z,961.26
2018-12-31T03:29:59.244Z,961.27
2018-12-31T03:30:59.222Z,961.26
2018-12-31T03:31:59.212Z,961.25
2018-12-31T03:32:59.203Z,961.24
2018-12-31T03:33:59.191Z,961.22
2018-12-31T03:34:59.179Z,961.23
2018-12-31T03:35:59.173Z,961.27
2018-12-31T03:36:59.161Z,961.27
2018-12-31T03:37:59.152Z,961.32
2018-12-31T03:38:59.138Z,961.32
2018-12-31T03:39:59.131Z,961.38
2018-12-31T03:40:59.119Z,961.31
2018-12-31T03:41:59.112Z,961.36
2018-12-31T03:42:59.105Z,961.30
2018-12-31T03:43:59.092Z,961.34
2018-12-31T03:44:59.084Z,961.30
2018-12-31T03:45:59.070Z,961.37
2018-12-31T03:46:59.059Z,961.38
2018-12-31T03:47:59.056Z,961.38
2018-12-31T03:48:59.039Z,961.38
2018-12-31T03:49:59.031Z,961.40
2018-12-31T03:50:59.017Z,961.38
2018-12-31T03:51:59.006Z,961.38
2018-12-31T03:52:58.998Z,961.40
2018-12-31T03:53:58.990Z,961.38
2018-12-31T03:54:58.978Z,961.36
2018-12-31T03:55:58.972Z,961.35
2018-12-31T03:56:58.958Z,961.34
2018-12-31T03:57:58.958Z,961.33
2018-12-31T03:58:58.940Z,961.33
2018-12-31T03:59:58.984Z,961.32
2018-12-31T04:00:58.919Z,961.33
2018-12-31T04:01:58.910Z,961.32
2018-12-31T04:02:58.897Z,961.33
2018-12-31T04:03:58.922Z,961.29
2018-12-31T04:04:58.877Z,961.30
2018-12-31T04:05:58.870Z,961.31
2018-12-31T04:06:58.872Z,961.30
2018-12-31T04:07:58.849Z,961.30
2018-12-31T04:08:58.839Z,961.35
2018-12-31T04:09:58.856Z,961.30
2018-12-31T04:10:58.819Z,961.30
2018-12-31T04:11:58.809Z,961.26
2018-12-31T04:12:58.799Z,961.28
2018-12-31T04:13:58.790Z,961.28
2018-12-31T04:14:58.777Z,961.31
2018-12-31T04:15:58.768Z,961.32
2018-12-31T04:16:58.757Z,961.34
2018-12-31T04:18:01.165Z,961.29
2018-12-31T04:18:58.739Z,961.33
2018-12-31T04:19:58.728Z,961.30
2018-12-31T04:20:58.714Z,961.28
2018-12-31T04:21:58.710Z,961.30
2018-12-31T04:22:58.705Z,961.31
2018-12-31T04:23:58.688Z,961.28
2018-12-31T04:24:58.680Z,961.32
2018-12-31T04:25:58.673Z,961.34
2018-12-31T04:26:58.673Z,961.34
2018-12-31T04:27:58.651Z,961.35
2018-12-31T04:28:58.640Z,961.33
2018-12-31T04:29:58.628Z,961.37
2018-12-31T04:30:58.618Z,961.35
2018-12-31T04:31:58.610Z,961.33
2018-12-31T04:32:58.597Z,961.32
2018-12-31T04:33:58.587Z,961.27
2018-12-31T04:34:58.581Z,961.28
2018-12-31T04:35:58.568Z,961.21
2018-12-31T04:36:58.560Z,961.20
2018-12-31T04:37:58.552Z,961.21
2018-12-31T04:38:58.539Z,961.22
2018-12-31T04:39:58.527Z,961.20
2018-12-31T04:40:58.523Z,961.22
2018-12-31T04:41:58.505Z,961.19
2018-12-31T04:42:58.501Z,961.18
2018-12-31T04:43:58.489Z,961.21
2018-12-31T04:44:58.479Z,961.22
2018-12-31T04:45:58.471Z,961.25
2018-12-31T04:46:58.456Z,961.24
2018-12-31T04:47:58.480Z,961.19
2018-12-31T04:48:58.443Z,961.26
2018-12-31T04:49:58.430Z,961.24
2018-12-31T04:50:58.431Z,961.26
2018-12-31T04:51:58.405Z,961.26
2018-12-31T04:52:58.403Z,961.27
2018-12-31T04:53:58.389Z,961.27
2018-12-31T04:54:58.378Z,961.25
2018-12-31T04:55:58.370Z,961.22
2018-12-31T04:56:58.359Z,961.19
2018-12-31T04:57:58.345Z,961.17
2018-12-31T04:58:58.340Z,961.14
2018-12-31T04:59:58.330Z,961.17
2018-12-31T05:00:58.321Z,961.18
2018-12-31T05:01:58.319Z,961.17
2018-12-31T05:02:58.299Z,961.17
2018-12-31T05:03:58.289Z,961.16
2018-12-31T05:04:58.280Z,961.15
2018-12-31T05:05:58.273Z,961.12
2018-12-31T05:06:58.258Z,961.14
2018-12-31T05:07:59.336Z,961.10
2018-12-31T05:08:58.238Z,961.10
2018-12-31T05:09:58.232Z,961.11
2018-12-31T05:10:58.219Z,961.09
2018-12-31T05:11:58.215Z,961.11
2018-12-31T05:12:58.199Z,961.07
2018-12-31T05:13:58.197Z,961.07
2018-12-31T05:14:58.182Z,961.06
2018-12-31T05:15:58.197Z,961.07
2018-12-31T05:16:58.161Z,961.06
2018-12-31T05:17:58.159Z,961.03
2018-12-31T05:18:58.142Z,961.01
2018-12-31T05:19:58.127Z,961.02
2018-12-31T05:20:58.122Z,960.97
2018-12-31T05:21:58.112Z,960.97
2018-12-31T05:22:58.100Z,960.95
2018-12-31T05:23:58.088Z,960.96
2018-12-31T05:24:58.079Z,960.97
2018-12-31T05:25:58.074Z,960.94
2018-12-31T05:26:58.061Z,960.92
2018-12-31T05:27:58.059Z,960.94
2018-12-31T05:28:58.037Z,960.94
2018-12-31T05:29:58.026Z,960.96
2018-12-31T05:30:58.018Z,960.95
2018-12-31T05:31:58.011Z,960.92
2018-12-31T05:32:58.003Z,960.94
2018-12-31T05:33:57.989Z,960.97
2018-12-31T05:34:57.978Z,960.93
2018-12-31T05:35:57.968Z,961.01
2018-12-31T05:36:57.959Z,961.00
2018-12-31T05:37:57.948Z,961.02
2018-12-31T05:38:57.935Z,960.98
2018-12-31T05:39:57.928Z,961.00
2018-12-31T05:40:57.916Z,960.97
2018-12-31T05:41:57.906Z,960.92
2018-12-31T05:42:57.897Z,960.90
2018-12-31T05:43:57.899Z,960.94
2018-12-31T05:44:57.879Z,960.93
2018-12-31T05:45:57.867Z,960.92
2018-12-31T05:46:57.857Z,960.94
2018-12-31T05:47:57.848Z,961.02
2018-12-31T05:48:57.838Z,960.92
2018-12-31T05:49:57.831Z,960.90
2018-12-31T05:50:57.818Z,960.94
2018-12-31T05:51:57.803Z,960.90
2018-12-31T05:52:57.797Z,960.96
2018-12-31T05:53:57.789Z,960.96
2018-12-31T05:54:57.778Z,961.02
2018-12-31T05:55:57.770Z,960.99
2018-12-31T05:56:57.757Z,960.99
2018-12-31T05:57:57.748Z,961.00
2018-12-31T05:58:57.733Z,961.00
2018-12-31T05:59:57.726Z,960.95
2018-12-31T06:00:57.750Z,960.96
2018-12-31T06:01:57.712Z,960.97
2018-12-31T06:02:57.696Z,960.94
2018-12-31T06:03:57.726Z,961.00
2018-12-31T06:04:57.676Z,961.03
2018-12-31T06:05:57.672Z,961.01
2018-12-31T06:06:57.655Z,961.01
2018-12-31T06:07:57.647Z,961.01
2018-12-31T06:08:57.637Z,961.03
2018-12-31T06:09:57.626Z,961.04
2018-12-31T06:10:57.610Z,960.96
2018-12-31T06:11:57.609Z,961.02
2018-12-31T06:12:57.598Z,961.01
2018-12-31T06:13:57.587Z,960.96
2018-12-31T06:14:57.569Z,961.02
2018-12-31T06:15:57.566Z,960.96
2018-12-31T06:16:57.555Z,961.00
2018-12-31T06:17:57.547Z,961.06
2018-12-31T06:18:57.539Z,961.00
2018-12-31T06:19:57.526Z,961.04
2018-12-31T06:20:57.518Z,961.04
2018-12-31T06:21:57.507Z,961.02
2018-12-31T06:22:57.501Z,961.10
2018-12-31T06:23:57.485Z,961.09
2018-12-31T06:24:57.475Z,961.13
2018-12-31T06:25:57.466Z,961.13
2018-12-31T06:26:57.455Z,961.14
2018-12-31T06:27:57.442Z,961.13
2018-12-31T06:28:57.441Z,961.10
2018-12-31T06:29:57.431Z,961.15
2018-12-31T06:30:57.415Z,961.14
2018-12-31T06:31:57.405Z,961.09
2018-12-31T06:32:57.400Z,961.17
2018-12-31T06:33:57.396Z,961.10
2018-12-31T06:34:57.375Z,961.15
2018-12-31T06:35:57.363Z,961.17
2018-12-31T06:36:57.353Z,961.20
2018-12-31T06:37:57.348Z,961.22
2018-12-31T06:38:57.335Z,961.21
2018-12-31T06:39:57.326Z,961.24
2018-12-31T06:40:57.315Z,961.23
2018-12-31T06:41:57.303Z,961.27
2018-12-31T06:42:57.295Z,961.25
2018-12-31T06:43:57.286Z,961.27
2018-12-31T06:44:57.277Z,961.28
2018-12-31T06:45:57.265Z,961.28
2018-12-31T06:46:57.257Z,961.26
2018-12-31T06:47:57.244Z,961.28
2018-12-31T06:48:57.237Z,961.30
2018-12-31T06:49:57.225Z,961.31
2018-12-31T06:50:57.214Z,961.32
2018-12-31T06:51:57.207Z,961.25
2018-12-31T06:52:57.686Z,961.31
2018-12-31T06:53:57.182Z,961.35
2018-12-31T06:54:57.176Z,961.37
2018-12-31T06:55:57.166Z,961.35
2018-12-31T06:56:57.156Z,961.39
2018-12-31T06:57:57.147Z,961.41
2018-12-31T06:58:57.151Z,961.38
2018-12-31T06:59:57.126Z,961.35
2018-12-31T07:00:57.117Z,961.37
2018-12-31T07:01:57.109Z,961.41
2018-12-31T07:02:57.119Z,961.39
2018-12-31T07:03:57.089Z,961.46
2018-12-31T07:04:57.078Z,961.49
2018-12-31T07:05:57.068Z,961.52
2018-12-31T07:06:57.057Z,961.54
2018-12-31T07:07:57.071Z,961.55
2018-12-31T07:08:57.037Z,961.53
2018-12-31T07:09:57.019Z,961.54
2018-12-31T07:10:57.022Z,961.54
2018-12-31T07:11:57.003Z,961.58
2018-12-31T07:12:57.005Z,961.60
2018-12-31T07:13:56.993Z,961.53
2018-12-31T07:14:56.979Z,961.58
2018-12-31T07:15:56.973Z,961.54
2018-12-31T07:16:56.961Z,961.53
2018-12-31T07:17:56.950Z,961.53
2018-12-31T07:18:56.945Z,961.54
2018-12-31T07:19:56.931Z,961.57
2018-12-31T07:20:56.920Z,961.55
2018-12-31T07:21:56.913Z,961.56
2018-12-31T07:22:56.925Z,961.53
2018-12-31T07:23:56.895Z,961.57
2018-12-31T07:24:56.882Z,961.59
2018-12-31T07:25:56.871Z,961.59
2018-12-31T07:26:56.880Z,961.65
2018-12-31T07:27:56.852Z,961.69
2018-12-31T07:28:56.842Z,961.74
2018-12-31T07:29:56.837Z,961.78
2018-12-31T07:30:56.823Z,961.76
2018-12-31T07:31:56.815Z,961.77
2018-12-31T07:32:56.807Z,961.75
2018-12-31T07:33:56.796Z,961.68
2018-12-31T07:34:56.789Z,961.72
2018-12-31T07:35:56.780Z,961.69
2018-12-31T07:36:56.765Z,961.70
2018-12-31T07:37:56.759Z,961.67
2018-12-31T07:38:56.789Z,961.66
2018-12-31T07:39:58.831Z,961.69
2018-12-31T07:40:56.730Z,961.71
2018-12-31T07:41:56.719Z,961.72
2018-12-31T07:42:56.708Z,961.70
2018-12-31T07:43:56.699Z,961.73
2018-12-31T07:44:56.691Z,961.77
2018-12-31T07:45:56.684Z,961.79
2018-12-31T07:46:56.673Z,961.83
2018-12-31T07:47:56.661Z,961.84
2018-12-31T07:48:56.652Z,961.86
2018-12-31T07:49:56.643Z,961.88
2018-12-31T07:50:56.635Z,961.87
2018-12-31T07:51:56.628Z,961.88
2018-12-31T07:52:56.615Z,961.88
2018-12-31T07:53:56.605Z,961.87
2018-12-31T07:54:56.594Z,961.88
2018-12-31T07:55:56.586Z,961.87
2018-12-31T07:56:56.580Z,961.87
2018-12-31T07:57:56.582Z,961.85
2018-12-31T07:58:56.557Z,961.87
2018-12-31T07:59:56.548Z,961.83
2018-12-31T08:00:56.541Z,961.82
2018-12-31T08:01:56.520Z,961.80
2018-12-31T08:02:56.518Z,961.77
2018-12-31T08:03:56.512Z,961.75
2018-12-31T08:04:56.504Z,961.76
2018-12-31T08:05:56.493Z,961.71
2018-12-31T08:06:56.484Z,961.74
2018-12-31T08:07:56.477Z,961.78
2018-12-31T08:08:56.464Z,961.77
2018-12-31T08:09:56.461Z,961.74
2018-12-31T08:10:56.447Z,961.75
2018-12-31T08:11:56.479Z,961.78
2018-12-31T08:12:56.427Z,961.85
2018-12-31T08:13:56.421Z,961.79
2018-12-31T08:14:56.402Z,961.90
2018-12-31T08:15:56.399Z,961.88
2018-12-31T08:16:56.388Z,961.85
2018-12-31T08:17:56.382Z,961.89
2018-12-31T08:18:56.371Z,961.87
2018-12-31T08:19:56.364Z,961.88
2018-12-31T08:20:56.353Z,961.89
2018-12-31T08:21:56.347Z,961.90
2018-12-31T08:22:56.335Z,961.90
2018-12-31T08:23:56.326Z,961.93
2018-12-31T08:24:56.308Z,961.94
2018-12-31T08:25:56.307Z,961.94
2018-12-31T08:26:56.296Z,961.93
2018-12-31T08:27:56.292Z,961.94
2018-12-31T08:28:56.276Z,961.94
2018-12-31T08:29:57.306Z,961.92
2018-12-31T08:30:59.032Z,961.94
2018-12-31T08:31:56.259Z,962.00
2018-12-31T08:32:56.241Z,962.00
2018-12-31T08:33:56.236Z,962.01
2018-12-31T08:34:56.223Z,961.99
2018-12-31T08:35:56.213Z,962.01
2018-12-31T08:36:56.204Z,962.01
2018-12-31T08:37:56.195Z,962.02
2018-12-31T08:38:56.186Z,962.04
2018-12-31T08:39:56.177Z,962.03
2018-12-31T08:40:56.198Z,962.01
2018-12-31T08:41:56.162Z,962.03
2018-12-31T08:42:56.155Z,962.07
2018-12-31T08:43:56.142Z,962.06
2018-12-31T08:44:56.131Z,962.09
2018-12-31T08:45:56.127Z,962.05
2018-12-31T08:46:56.111Z,962.05
2018-12-31T08:47:56.103Z,962.06
2018-12-31T08:48:56.092Z,962.09
2018-12-31T08:49:56.084Z,962.08
2018-12-31T08:50:56.075Z,962.08
2018-12-31T08:51:56.094Z,962.07
2018-12-31T08:52:56.049Z,962.12
2018-12-31T08:53:56.051Z,962.11
2018-12-31T08:54:56.038Z,962.10
2018-12-31T08:55:56.044Z,962.16
2018-12-31T08:56:56.027Z,962.13
2018-12-31T08:57:56.013Z,962.12
2018-12-31T08:58:56.005Z,962.08
2018-12-31T08:59:55.998Z,962.09
2018-12-31T09:00:55.985Z,962.05
2018-12-31T09:01:55.974Z,962.03
2018-12-31T09:02:55.967Z,962.05
2018-12-31T09:03:55.961Z,962.10
2018-12-31T09:04:55.949Z,962.10
2018-12-31T09:05:55.938Z,962.12
2018-12-31T09:06:55.930Z,962.11
2018-12-31T09:07:55.922Z,962.14
2018-12-31T09:08:55.920Z,962.21
2018-12-31T09:09:55.903Z,962.18
2018-12-31T09:10:55.895Z,962.22
2018-12-31T09:11:55.894Z,962.26
2018-12-31T09:12:55.897Z,962.25
2018-12-31T09:13:55.870Z,962.31
2018-12-31T09:14:55.866Z,962.27
2018-12-31T09:15:55.840Z,962.26
2018-12-31T09:16:55.843Z,962.27
2018-12-31T09:17:55.833Z,962.27
2018-12-31T09:18:55.823Z,962.26
2018-12-31T09:19:55.810Z,962.25
2018-12-31T09:20:57.955Z,962.22
2018-12-31T09:21:55.799Z,962.24
2018-12-31T09:22:55.821Z,962.23
2018-12-31T09:23:55.777Z,962.22
2018-12-31T09:24:55.773Z,962.23
2018-12-31T09:25:56.447Z,962.30
2018-12-31T09:26:55.752Z,962.26
2018-12-31T09:27:55.744Z,962.25
2018-12-31T09:28:55.735Z,962.28
2018-12-31T09:29:55.729Z,962.29
2018-12-31T09:30:55.717Z,962.31
2018-12-31T09:31:55.708Z,962.33
2018-12-31T09:32:55.700Z,962.30
2018-12-31T09:33:55.691Z,962.35
2018-12-31T09:34:55.681Z,962.38
2018-12-31T09:35:55.671Z,962.38
2018-12-31T09:36:55.663Z,962.37
2018-12-31T09:37:55.647Z,962.37
2018-12-31T09:38:55.637Z,962.44
2018-12-31T09:39:55.635Z,962.45
2018-12-31T09:40:55.628Z,962.48
2018-12-31T09:41:55.620Z,962.43
2018-12-31T09:42:55.608Z,962.46
2018-12-31T09:43:55.601Z,962.44
2018-12-31T09:44:55.592Z,962.47
2018-12-31T09:45:55.583Z,962.43
2018-12-31T09:46:55.572Z,962.49
2018-12-31T09:47:55.566Z,962.51
2018-12-31T09:48:55.558Z,962.52
2018-12-31T09:49:55.555Z,962.47
2018-12-31T09:50:55.539Z,962.46
2018-12-31T09:51:55.522Z,962.48
2018-12-31T09:52:55.530Z,962.49
2018-12-31T09:53:55.508Z,962.45
2018-12-31T09:54:55.504Z,962.44
2018-12-31T09:55:55.496Z,962.42
2018-12-31T09:56:55.490Z,962.45
2018-12-31T09:57:55.488Z,962.39
2018-12-31T09:58:55.485Z,962.35
2018-12-31T09:59:55.458Z,962.35
2018-12-31T10:00:55.452Z,962.26
2018-12-31T10:01:55.442Z,962.25
2018-12-31T10:02:55.433Z,962.22
2018-12-31T10:03:55.428Z,962.18
2018-12-31T10:04:55.419Z,962.19
2018-12-31T10:05:55.403Z,962.22
2018-12-31T10:06:55.397Z,962.21
2018-12-31T10:07:55.388Z,962.22
2018-12-31T10:08:55.375Z,962.19
2018-12-31T10:09:55.371Z,962.19
2018-12-31T10:10:55.363Z,962.19
2018-12-31T10:11:57.687Z,962.13
2018-12-31T10:12:55.344Z,962.14
2018-12-31T10:13:55.344Z,962.16
2018-12-31T10:14:55.331Z,962.17
2018-12-31T10:15:55.320Z,962.14
2018-12-31T10:16:55.313Z,962.08
2018-12-31T10:17:55.303Z,962.10
2018-12-31T10:18:55.293Z,962.04
2018-12-31T10:19:55.279Z,962.01
2018-12-31T10:20:55.276Z,961.99
2018-12-31T10:21:55.269Z,962.01
2018-12-31T10:22:55.260Z,961.98
2018-12-31T10:23:55.252Z,961.97
2018-12-31T10:24:55.238Z,961.97
2018-12-31T10:25:55.232Z,961.92
2018-12-31T10:26:55.223Z,961.88
2018-12-31T10:27:55.221Z,961.87
2018-12-31T10:28:55.204Z,961.86
2018-12-31T10:29:55.209Z,961.88
2018-12-31T10:30:55.194Z,961.83
2018-12-31T10:31:55.175Z,961.87
2018-12-31T10:32:55.176Z,961.86
2018-12-31T10:33:55.167Z,961.90
2018-12-31T10:34:55.168Z,961.84
2018-12-31T10:35:55.150Z,961.82
2018-12-31T10:36:55.155Z,961.83
2018-12-31T10:37:55.137Z,961.82
2018-12-31T10:38:55.136Z,961.83
2018-12-31T10:39:55.123Z,961.81
2018-12-31T10:40:55.140Z,961.81
2018-12-31T10:41:55.107Z,961.78
2018-12-31T10:42:55.095Z,961.77
2018-12-31T10:43:55.085Z,961.78
2018-12-31T10:44:55.078Z,961.79
2018-12-31T10:45:55.075Z,961.79
2018-12-31T10:46:55.063Z,961.83
2018-12-31T10:47:55.050Z,961.77
2018-12-31T10:48:55.047Z,961.84
2018-12-31T10:49:55.032Z,961.82
2018-12-31T10:50:55.030Z,961.85
2018-12-31T10:51:55.017Z,961.82
2018-12-31T10:52:55.014Z,961.85
2018-12-31T10:53:55.005Z,961.88
2018-12-31T10:54:55.007Z,961.89
2018-12-31T10:55:54.990Z,961.92
2018-12-31T10:56:55.173Z,961.92
2018-12-31T10:57:54.974Z,961.89
2018-12-31T10:58:54.992Z,961.89
2018-12-31T10:59:54.957Z,961.89
2018-12-31T11:00:54.951Z,961.86
2018-12-31T11:01:54.942Z,961.80
2018-12-31T11:02:54.934Z,961.80
2018-12-31T11:03:54.925Z,961.73
2018-12-31T11:04:54.917Z,961.69
2018-12-31T11:05:54.952Z,961.67
2018-12-31T11:06:54.894Z,961.68
2018-12-31T11:07:54.898Z,961.63
2018-12-31T11:08:54.885Z,961.66
2018-12-31T11:09:54.882Z,961.63
2018-12-31T11:10:54.873Z,961.61
2018-12-31T11:11:54.863Z,961.66
2018-12-31T11:12:54.852Z,961.66
2018-12-31T11:13:54.850Z,961.66
2018-12-31T11:14:54.847Z,961.72
2018-12-31T11:15:54.842Z,961.72
2018-12-31T11:16:54.823Z,961.66
2018-12-31T11:17:56.583Z,961.65
2018-12-31T11:18:54.815Z,961.62
2018-12-31T11:19:54.799Z,961.64
2018-12-31T11:20:54.793Z,961.64
2018-12-31T11:21:54.783Z,961.63
2018-12-31T11:22:54.775Z,961.59
2018-12-31T11:23:54.767Z,961.59
2018-12-31T11:24:54.761Z,961.59
2018-12-31T11:25:54.755Z,961.56
2018-12-31T11:26:54.745Z,961.58
2018-12-31T11:27:54.740Z,961.59
2018-12-31T11:28:54.731Z,961.60
2018-12-31T11:29:54.726Z,961.58
2018-12-31T11:30:54.730Z,961.63
2018-12-31T11:31:54.711Z,961.62
2018-12-31T11:32:54.703Z,961.63
2018-12-31T11:33:54.692Z,961.60
2018-12-31T11:34:54.686Z,961.61
2018-12-31T11:35:54.674Z,961.61
2018-12-31T11:36:54.671Z,961.61
2018-12-31T11:37:54.664Z,961.58
2018-12-31T11:38:54.655Z,961.58
2018-12-31T11:39:54.648Z,961.50
2018-12-31T11:40:54.642Z,961.46
2018-12-31T11:41:54.640Z,961.53
2018-12-31T11:42:54.624Z,961.50
2018-12-31T11:43:54.620Z,961.43
2018-12-31T11:44:54.615Z,961.41
2018-12-31T11:45:54.603Z,961.40
2018-12-31T11:46:54.594Z,961.41
2018-12-31T11:47:54.586Z,961.37
2018-12-31T11:48:54.581Z,961.38
2018-12-31T11:49:54.574Z,961.33
2018-12-31T11:50:54.567Z,961.36
2018-12-31T11:51:54.562Z,961.35
2018-12-31T11:52:54.551Z,961.35
2018-12-31T11:53:54.544Z,961.34
2018-12-31T11:54:54.538Z,961.30
2018-12-31T11:55:54.529Z,961.32
2018-12-31T11:56:54.520Z,961.29
2018-12-31T11:57:54.513Z,961.24
2018-12-31T11:58:54.504Z,961.26
2018-12-31T11:59:54.498Z,961.26
2018-12-31T12:00:54.490Z,961.19
2018-12-31T12:01:55.698Z,961.18
2018-12-31T12:02:54.465Z,961.21
2018-12-31T12:03:54.479Z,961.19
2018-12-31T12:04:54.459Z,961.19
2018-12-31T12:05:54.450Z,961.15
2018-12-31T12:06:54.446Z,961.13
2018-12-31T12:07:54.439Z,961.09
2018-12-31T12:08:54.431Z,961.09
2018-12-31T12:09:54.414Z,961.05
2018-12-31T12:10:54.414Z,961.05
2018-12-31T12:11:54.408Z,960.99
2018-12-31T12:12:54.403Z,961.06
2018-12-31T12:13:54.394Z,961.02
2018-12-31T12:14:54.386Z,961.04
2018-12-31T12:15:54.379Z,961.05
2018-12-31T12:16:54.373Z,961.06
2018-12-31T12:17:54.364Z,961.06
2018-12-31T12:18:54.353Z,961.10
2018-12-31T12:19:54.350Z,961.10
2018-12-31T12:20:54.341Z,961.11
2018-12-31T12:21:54.336Z,961.15
2018-12-31T12:22:54.343Z,961.13
2018-12-31T12:23:54.319Z,961.13
2018-12-31T12:24:54.314Z,961.19
2018-12-31T12:25:54.304Z,961.19
2018-12-31T12:26:54.297Z,961.16
2018-12-31T12:27:54.291Z,961.14